Time;durP1;ratioP1;P1;durP2;ratioP2;P2;SDS_P1;SDS_P2;PMS_P1;PMS_P2;Temp;Humidity;BMP_temperature;BMP_pressure;BME280_temperature;BME280_humidity;BME280_pressure;Samples;Min_cycle;Max_cycle;Signal;HPM_P1;HPM_P2
2022/07/30 00:00:34;;;;;;;1.47;1.37;;;;;;;23.96;45.58;101376.28;4959943;28;96975;-50
2022/07/30 00:02:59;;;;;;;1.50;1.40;;;;;;;23.94;45.76;101370.47;4962296;28;97283;-50
2022/07/30 00:05:25;;;;;;;5.80;1.40;;;;;;;23.93;45.95;101383.03;4950248;28;96910;-50
2022/07/30 00:07:50;;;;;;;1.57;1.47;;;;;;;23.90;45.93;101367.28;4959025;28;97270;-50
2022/07/30 00:10:15;;;;;;;1.37;1.27;;;;;;;23.83;46.32;101368.81;4956623;28;97713;-50
2022/07/30 00:12:41;;;;;;;1.50;1.23;;;;;;;23.73;46.53;101377.13;4956265;28;96927;-50
2022/07/30 00:15:07;;;;;;;2.50;1.40;;;;;;;23.62;46.77;101366.28;4959909;28;97271;-50
2022/07/30 00:17:32;;;;;;;2.97;1.60;;;;;;;23.52;46.85;101362.59;4959813;28;97411;-50
2022/07/30 00:19:57;;;;;;;5.00;1.37;;;;;;;23.45;47.13;101365.41;4960368;28;97141;-50
2022/07/30 00:22:23;;;;;;;1.20;1.10;;;;;;;23.44;47.42;101366.69;4964636;28;97187;-50
2022/07/30 00:24:48;;;;;;;1.60;1.30;;;;;;;23.48;47.37;101361.47;4954267;28;96994;-50
2022/07/30 00:27:13;;;;;;;3.37;1.37;;;;;;;23.46;47.36;101369.72;4959800;28;97451;-49
2022/07/30 00:29:39;;;;;;;1.90;1.33;;;;;;;23.44;47.42;101367.47;4950509;28;97571;-50
2022/07/30 00:32:05;;;;;;;1.50;1.40;;;;;;;23.44;47.58;101359.03;4957737;28;96897;-49
2022/07/30 00:34:30;;;;;;;4.87;1.50;;;;;;;23.46;47.48;101358.50;4955181;28;97283;-49
2022/07/30 00:36:55;;;;;;;1.63;1.40;;;;;;;23.46;47.53;101361.28;4960729;28;97463;-50
2022/07/30 00:39:21;;;;;;;2.17;1.60;;;;;;;23.46;47.74;101364.09;4959182;28;97492;-50
2022/07/30 00:41:54;;;;;;;2.70;1.53;;;;;;;23.44;48.55;101359.03;4958813;28;97301;-50
2022/07/30 00:44:20;;;;;;;3.30;1.50;;;;;;;23.43;48.14;101368.78;4959567;28;97342;-51
2022/07/30 00:46:45;;;;;;;3.27;1.50;;;;;;;23.41;48.29;101363.00;4956792;28;97195;-50
2022/07/30 00:49:11;;;;;;;1.60;1.50;;;;;;;23.38;48.42;101360.53;4956889;28;97676;-50
2022/07/30 00:51:36;;;;;;;2.73;1.63;;;;;;;23.35;48.49;101354.00;4954022;28;97160;-48
2022/07/30 00:54:01;;;;;;;2.93;1.67;;;;;;;23.32;48.76;101357.91;4956024;28;96938;-50
2022/07/30 00:56:27;;;;;;;2.10;1.90;;;;;;;23.31;48.96;101352.84;4957630;28;96976;-50
2022/07/30 00:58:52;;;;;;;3.60;1.60;;;;;;;23.28;49.12;101356.81;4954821;28;97304;-50
2022/07/30 01:01:17;;;;;;;2.50;1.70;;;;;;;23.23;49.21;101357.75;4958049;28;97512;-50
2022/07/30 01:03:43;;;;;;;2.20;1.43;;;;;;;23.16;49.45;101345.22;4955991;28;97407;-50
2022/07/30 01:06:08;;;;;;;2.07;1.80;;;;;;;23.11;49.58;101341.28;4962550;28;97211;-50
2022/07/30 01:08:33;;;;;;;2.37;1.97;;;;;;;23.06;49.67;101339.41;4960180;28;102056;-51
2022/07/30 01:10:59;;;;;;;2.33;1.67;;;;;;;23.00;50.04;101338.13;4956632;28;101948;-50
2022/07/30 01:13:24;;;;;;;1.63;1.50;;;;;;;22.90;50.26;101325.97;4956712;28;97364;-51
2022/07/30 01:15:49;;;;;;;3.10;1.90;;;;;;;22.76;50.70;101327.50;4952970;28;97163;-51
2022/07/30 01:18:16;;;;;;;3.47;1.70;;;;;;;22.67;50.89;101325.97;4961764;28;96766;-51
2022/07/30 01:20:59;;;;;;;2.00;1.90;;;;;;;22.60;52.44;101317.56;4957741;28;98344;-51
2022/07/30 01:23:33;;;;;;;4.47;2.33;;;;;;;22.49;51.90;101332.69;4957546;28;97294;-51
2022/07/30 01:26:08;;;;;;;4.00;1.67;;;;;;;22.41;52.37;101334.00;4959309;28;98392;-50
2022/07/30 01:28:44;;;;;;;2.03;1.90;;;;;;;22.36;53.01;101336.41;4960088;28;96792;-51
2022/07/30 01:31:12;;;;;;;1.67;1.50;;;;;;;22.36;51.91;101353.25;4958665;28;98019;-51
2022/07/30 01:33:41;;;;;;;1.80;1.70;;;;;;;22.36;52.15;101346.88;4956056;28;97124;-52
2022/07/30 01:36:10;;;;;;;4.40;2.10;;;;;;;22.32;52.29;101352.09;4957098;28;96969;-50
2022/07/30 01:38:37;;;;;;;1.53;1.53;;;;;;;22.25;52.30;101347.22;4957462;28;97417;-50
2022/07/30 01:41:05;;;;;;;1.83;1.73;;;;;;;22.21;52.48;101341.25;4953625;28;97440;-50
2022/07/30 01:43:33;;;;;;;2.10;1.90;;;;;;;22.15;52.72;101330.19;4960452;28;97531;-50
2022/07/30 01:46:01;;;;;;;1.87;1.73;;;;;;;22.17;52.82;101333.19;4953405;28;98542;-50
2022/07/30 01:48:27;;;;;;;1.60;1.40;;;;;;;22.17;52.80;101335.97;4958254;28;97018;-51
2022/07/30 01:50:55;;;;;;;2.23;1.90;;;;;;;22.16;53.06;101342.91;4958140;28;96928;-53
2022/07/30 01:53:24;;;;;;;2.33;1.80;;;;;;;22.17;52.91;101352.06;4959412;28;96947;-51
2022/07/30 01:55:49;;;;;;;2.87;2.60;;;;;;;22.14;53.05;101342.72;4958406;28;97025;-48
2022/07/30 01:58:19;;;;;;;3.07;2.13;;;;;;;22.12;53.24;101334.13;4956182;28;97448;-50
2022/07/30 02:00:47;;;;;;;2.07;1.70;;;;;;;22.04;53.29;101333.34;4957765;28;97442;-50
2022/07/30 02:03:13;;;;;;;2.70;2.50;;;;;;;21.94;53.57;101334.44;4957662;28;96843;-49
2022/07/30 02:05:40;;;;;;;2.10;2.00;;;;;;;21.81;53.73;101321.28;4959195;28;97406;-51
2022/07/30 02:08:17;;;;;;;2.50;1.90;;;;;;;21.75;55.32;101320.72;4961095;28;96871;-50
2022/07/30 02:10:48;;;;;;;2.90;2.00;;;;;;;21.69;54.04;101314.50;4960057;28;97328;-50
2022/07/30 02:13:19;;;;;;;3.37;2.27;;;;;;;21.62;54.73;101304.03;4963483;28;97178;-50
2022/07/30 02:15:53;;;;;;;5.23;1.87;;;;;;;21.55;54.82;101304.75;4960462;28;98600;-50
2022/07/30 02:18:43;;;;;;;3.40;2.20;;;;;;;21.47;55.65;101301.19;4961195;28;98392;-50
2022/07/30 02:21:10;;;;;;;3.67;2.03;;;;;;;21.38;54.76;101294.03;4956823;28;96691;-51
2022/07/30 02:23:40;;;;;;;2.57;2.37;;;;;;;21.34;54.96;101292.91;4960403;28;97642;-50
2022/07/30 02:26:07;;;;;;;2.80;2.10;;;;;;;21.35;54.79;101291.59;4961442;28;97165;-50
2022/07/30 02:28:37;;;;;;;2.37;2.17;;;;;;;21.36;55.08;101291.03;4957904;28;97081;-50
2022/07/30 02:31:06;;;;;;;2.27;2.07;;;;;;;21.38;54.85;101296.09;4965506;28;97106;-50
2022/07/30 02:33:41;;;;;;;2.40;2.10;;;;;;;21.38;55.73;101296.81;4956947;28;96778;-49
2022/07/30 02:36:09;;;;;;;2.43;2.20;;;;;;;21.39;54.84;101292.72;4967947;28;97449;-50
2022/07/30 02:38:36;;;;;;;2.70;2.50;;;;;;;21.40;54.77;101290.69;4962182;28;97069;-51
2022/07/30 02:41:03;;;;;;;2.37;2.20;;;;;;;21.41;54.84;101295.72;4964211;28;96835;-51
2022/07/30 02:43:30;;;;;;;2.70;2.30;;;;;;;21.38;54.98;101296.09;4964615;28;96972;-50
2022/07/30 02:45:58;;;;;;;2.90;2.30;;;;;;;21.35;54.96;101300.75;4959307;28;97130;-50
2022/07/30 02:48:26;;;;;;;2.40;2.10;;;;;;;21.33;55.09;101299.78;4960412;28;98812;-50
2022/07/30 02:50:52;;;;;;;3.20;2.90;;;;;;;21.34;55.17;101304.81;4958245;28;97219;-50
2022/07/30 02:53:19;;;;;;;2.17;1.97;;;;;;;21.35;55.32;101297.94;4968823;28;97485;-50
2022/07/30 02:55:47;;;;;;;2.13;2.03;;;;;;;21.38;55.09;101313.63;4962816;28;97376;-51
2022/07/30 02:58:18;;;;;;;2.97;1.90;;;;;;;21.42;55.61;101318.88;4955691;28;97696;-50
2022/07/30 03:00:44;;;;;;;3.20;2.00;;;;;;;21.45;55.22;101306.56;4958592;28;96913;-50
2022/07/30 03:03:12;;;;;;;2.30;2.10;;;;;;;21.47;55.14;101321.50;4947545;28;97067;-50
2022/07/30 03:05:39;;;;;;;2.40;2.20;;;;;;;21.49;55.25;101304.16;4962719;28;97407;-51
2022/07/30 03:08:05;;;;;;;2.77;2.23;;;;;;;21.48;55.28;101306.22;4958508;28;97238;-50
2022/07/30 03:10:31;;;;;;;2.27;2.10;;;;;;;21.49;55.23;101309.78;4962443;28;96818;-50
2022/07/30 03:12:58;;;;;;;4.00;2.67;;;;;;;21.49;55.39;101312.56;4962720;28;97228;-51
2022/07/30 03:15:25;;;;;;;3.63;2.33;;;;;;;21.50;55.31;101316.84;4961665;28;97024;-50
2022/07/30 03:17:53;;;;;;;4.90;2.67;;;;;;;21.49;55.54;101318.16;4961625;28;97352;-50
2022/07/30 03:20:22;;;;;;;2.90;2.70;;;;;;;21.50;55.53;101333.66;4953546;28;97032;-50
2022/07/30 03:22:52;;;;;;;7.03;2.50;;;;;;;21.50;55.59;101322.47;4956079;28;96791;-50
2022/07/30 03:25:23;;;;;;;1.93;1.83;;;;;;;21.51;55.80;101329.56;4954507;28;98020;-49
2022/07/30 03:27:50;;;;;;;2.10;1.97;;;;;;;21.51;55.55;101337.97;4954641;28;98355;-50
2022/07/30 03:30:16;;;;;;;2.83;2.47;;;;;;;21.51;55.50;101337.97;4957937;28;96856;-49
2022/07/30 03:32:42;;;;;;;2.70;2.50;;;;;;;21.51;55.61;101346.38;4958067;28;97426;-50
2022/07/30 03:35:08;;;;;;;2.70;2.50;;;;;;;21.52;55.64;101359.06;4958290;28;96826;-50
2022/07/30 03:37:36;;;;;;;2.33;1.80;;;;;;;21.52;55.76;101356.25;4960042;28;97045;-50
2022/07/30 03:40:03;;;;;;;2.37;2.23;;;;;;;21.51;55.66;101363.91;4960055;28;97260;-50
2022/07/30 03:42:31;;;;;;;2.17;2.07;;;;;;;21.50;55.77;101379.22;4959628;28;96938;-49
2022/07/30 03:44:57;;;;;;;2.37;2.27;;;;;;;21.50;55.77;101379.22;4957297;28;96962;-50
2022/07/30 03:47:23;;;;;;;4.23;2.90;;;;;;;21.51;56.05;101379.97;4956325;28;101715;-50
2022/07/30 03:49:49;;;;;;;2.63;2.43;;;;;;;21.50;55.90;101375.66;4954962;28;97128;-50
2022/07/30 03:52:15;;;;;;;2.70;2.60;;;;;;;21.49;55.91;101379.78;4960124;28;96645;-50
2022/07/30 03:54:41;;;;;;;2.83;2.50;;;;;;;21.50;55.89;101384.06;4959584;28;97450;-50
2022/07/30 03:57:06;;;;;;;2.63;2.43;;;;;;;21.47;56.03;101380.31;4962437;28;98348;-49
2022/07/30 03:59:32;;;;;;;3.00;2.77;;;;;;;21.46;56.03;101390.03;4960908;28;96733;-49
2022/07/30 04:02:01;;;;;;;7.30;2.83;;;;;;;21.46;56.27;101392.81;4958356;28;96778;-50
2022/07/30 04:04:27;;;;;;;2.87;2.03;;;;;;;21.44;56.20;101391.88;4954477;28;97094;-50
2022/07/30 04:06:52;;;;;;;2.70;2.40;;;;;;;21.43;56.16;101390.34;4959640;28;97270;-50
2022/07/30 04:09:18;;;;;;;3.73;2.50;;;;;;;21.42;56.16;101395.22;4959455;28;97369;-56
2022/07/30 04:11:44;;;;;;;2.60;2.50;;;;;;;21.43;56.23;101395.97;4958230;28;96632;-50
2022/07/30 04:14:09;;;;;;;2.90;2.47;;;;;;;21.45;56.23;101396.16;4947505;28;97399;-50
2022/07/30 04:16:58;;;;;;;2.60;2.40;;;;;;;21.42;57.19;101400.81;4960714;28;97262;-50
2022/07/30 04:19:42;;;;;;;3.37;2.90;;;;;;;21.43;56.88;101405.13;4957606;28;96979;-50
2022/07/30 04:22:10;;;;;;;2.70;2.60;;;;;;;21.42;56.24;101412.03;4958207;28;97399;-50
2022/07/30 04:24:38;;;;;;;2.77;2.43;;;;;;;21.42;56.26;101405.66;4960153;28;97510;-50
2022/07/30 04:27:05;;;;;;;3.63;2.80;;;;;;;21.42;56.50;101414.81;4957195;28;97257;-53
2022/07/30 04:29:30;;;;;;;3.47;2.93;;;;;;;21.42;56.31;101409.22;4953391;28;97278;-50
2022/07/30 04:31:56;;;;;;;3.03;2.80;;;;;;;21.41;56.40;101416.13;4954777;28;97048;-50
2022/07/30 04:34:22;;;;;;;3.13;2.93;;;;;;;21.40;56.38;101423.03;4958050;28;96747;-49
2022/07/30 04:36:47;;;;;;;2.73;2.57;;;;;;;21.40;56.44;101419.47;4952470;28;98466;-50
2022/07/30 04:39:13;;;;;;;3.20;2.90;;;;;;;21.39;56.59;101424.31;4961211;28;97175;-50
2022/07/30 04:41:39;;;;;;;3.03;2.03;;;;;;;21.40;56.47;101430.69;4957049;28;97963;-50
2022/07/30 04:44:04;;;;;;;3.03;2.60;;;;;;;21.39;56.55;101426.34;4958702;28;97489;-48
2022/07/30 04:46:30;;;;;;;3.03;2.83;;;;;;;21.38;56.66;101436.06;4957081;28;96970;-50
2022/07/30 04:48:55;;;;;;;2.87;2.50;;;;;;;21.38;56.78;101424.88;4959668;28;97029;-49
2022/07/30 04:51:34;;;;;;;2.73;2.53;;;;;;;21.39;57.30;101431.97;4955161;28;96867;-50
2022/07/30 04:54:01;;;;;;;4.70;2.70;;;;;;;21.39;56.71;101440.34;4956832;28;101822;-50
2022/07/30 04:56:29;;;;;;;3.17;2.97;;;;;;;21.34;56.79;101436.41;4953232;28;98812;-48
2022/07/30 04:58:55;;;;;;;2.90;2.70;;;;;;;21.37;56.80;101437.34;4958023;28;98771;-50
2022/07/30 05:01:34;;;;;;;3.17;2.90;;;;;;;21.38;57.14;101447.28;4954707;28;96743;-49
2022/07/30 05:04:01;;;;;;;2.97;2.77;;;;;;;21.37;56.89;101452.13;4961294;28;101838;-48
2022/07/30 05:06:27;;;;;;;2.87;2.73;;;;;;;21.37;56.97;101451.34;4959304;28;97202;-50
2022/07/30 05:08:53;;;;;;;2.70;2.50;;;;;;;21.36;56.93;101455.47;4964762;28;97192;-50
2022/07/30 05:11:19;;;;;;;3.33;2.70;;;;;;;21.34;56.82;101452.47;4961579;28;96848;-50
2022/07/30 05:13:47;;;;;;;3.37;3.07;;;;;;;21.36;57.11;101461.81;4957098;28;98421;-51
2022/07/30 05:16:13;;;;;;;3.30;3.10;;;;;;;21.35;56.97;101451.16;4957987;28;97064;-50
2022/07/30 05:18:38;;;;;;;3.50;3.20;;;;;;;21.35;57.03;101456.75;4957671;28;96911;-50
2022/07/30 05:21:04;;;;;;;5.47;3.43;;;;;;;21.35;57.13;101449.13;4963655;28;96783;-50
2022/07/30 05:23:29;;;;;;;3.40;3.20;;;;;;;21.35;57.01;101453.97;4957329;28;97346;-50
2022/07/30 05:25:55;;;;;;;5.20;3.27;;;;;;;21.35;57.16;101443.50;4953248;28;97187;-53
2022/07/30 05:28:21;;;;;;;3.53;3.27;;;;;;;21.35;57.20;101451.16;4961735;28;97315;-50
2022/07/30 05:30:47;;;;;;;4.30;3.00;;;;;;;21.35;57.17;101451.91;4962760;28;101067;-51
2022/07/30 05:33:12;;;;;;;3.67;2.93;;;;;;;21.33;57.13;101443.31;4956321;28;97386;-49
2022/07/30 05:35:37;;;;;;;3.80;3.50;;;;;;;21.32;56.85;101446.66;4960108;28;99370;-50
2022/07/30 05:38:03;;;;;;;3.20;2.93;;;;;;;21.33;57.24;101448.16;4957052;28;97227;-50
2022/07/30 05:40:28;;;;;;;3.07;2.87;;;;;;;21.33;57.16;101448.91;4961160;28;97247;-50
2022/07/30 05:42:53;;;;;;;3.03;2.83;;;;;;;21.33;57.17;101451.72;4960647;28;97520;-49
2022/07/30 05:45:19;;;;;;;3.60;3.00;;;;;;;21.34;57.11;101449.69;4961084;28;97051;-50
2022/07/30 05:47:44;;;;;;;3.87;2.97;;;;;;;21.34;57.17;101447.59;4959091;28;97060;-50
2022/07/30 05:50:09;;;;;;;3.93;3.63;;;;;;;21.35;57.13;101454.72;4960957;28;97061;-50
2022/07/30 05:52:35;;;;;;;3.63;3.33;;;;;;;21.35;57.22;101451.16;4962938;28;97639;-50
2022/07/30 05:55:00;;;;;;;3.00;2.73;;;;;;;21.36;57.36;101449.88;4960231;28;97296;-49
2022/07/30 05:57:25;;;;;;;3.30;3.00;;;;;;;21.37;57.36;101452.13;4963595;28;96950;-49
2022/07/30 05:59:51;;;;;;;4.40;3.33;;;;;;;21.37;57.23;101448.56;4959535;28;96871;-50
2022/07/30 06:02:16;;;;;;;3.23;3.03;;;;;;;21.36;57.16;101447.81;4957851;28;96822;-50
2022/07/30 06:04:41;;;;;;;2.70;2.50;;;;;;;21.36;57.33;101445.00;4955670;28;96844;-50
2022/07/30 06:07:07;;;;;;;3.20;2.57;;;;;;;21.40;57.38;101445.44;4961763;28;97817;-50
2022/07/30 06:09:32;;;;;;;3.20;2.50;;;;;;;21.43;57.35;101443.56;4959462;28;97297;-51
2022/07/30 06:11:58;;;;;;;3.20;3.00;;;;;;;21.45;57.37;101436.13;4961448;28;103044;-50
2022/07/30 06:14:23;;;;;;;3.50;2.80;;;;;;;21.50;57.43;101440.06;4956274;28;97302;-51
2022/07/30 06:16:48;;;;;;;3.30;3.10;;;;;;;21.53;57.47;101433.38;4957066;28;96760;-50
2022/07/30 06:19:14;;;;;;;2.67;2.50;;;;;;;21.60;57.43;101441.06;4956842;28;96847;-50
2022/07/30 06:21:39;;;;;;;3.43;2.53;;;;;;;21.63;57.36;101435.13;4959636;28;97642;-50
2022/07/30 06:24:05;;;;;;;2.60;2.43;;;;;;;21.71;57.40;101434.41;4959675;28;97132;-50
2022/07/30 06:26:30;;;;;;;3.03;2.57;;;;;;;21.76;57.47;101439.09;4961175;28;97412;-50
2022/07/30 06:28:56;;;;;;;2.47;2.30;;;;;;;21.80;57.49;101431.84;4963009;28;96924;-50
2022/07/30 06:31:21;;;;;;;3.00;2.67;;;;;;;21.83;57.33;101436.38;4964403;28;102494;-53
2022/07/30 06:33:46;;;;;;;2.43;2.33;;;;;;;21.91;57.46;101442.75;4961043;28;97313;-49
2022/07/30 06:36:11;;;;;;;2.70;2.50;;;;;;;22.00;57.55;101433.84;4954063;28;96725;-49
2022/07/30 06:38:37;;;;;;;3.03;2.20;;;;;;;22.08;57.71;101436.69;4955965;28;96980;-49
2022/07/30 06:41:02;;;;;;;2.90;2.70;;;;;;;22.13;57.49;101439.31;4961573;28;98064;-51
2022/07/30 06:43:28;;;;;;;2.50;2.30;;;;;;;22.19;57.42;101437.09;4957586;28;97018;-50
2022/07/30 06:45:54;;;;;;;2.43;2.23;;;;;;;22.26;57.42;101435.63;4959802;28;96710;-50
2022/07/30 06:48:19;;;;;;;3.00;2.50;;;;;;;22.29;57.44;101434.53;4960500;28;96990;-50
2022/07/30 06:50:44;;;;;;;2.50;2.30;;;;;;;22.33;57.44;101438.47;4958295;28;98154;-50
2022/07/30 06:53:10;;;;;;;3.13;2.57;;;;;;;22.39;57.53;101441.09;4964123;28;97025;-50
2022/07/30 06:55:35;;;;;;;2.30;2.20;;;;;;;22.43;57.44;101447.09;4962096;28;96817;-51
2022/07/30 06:58:00;;;;;;;3.00;2.80;;;;;;;22.47;57.44;101441.13;4960219;28;96896;-49
2022/07/30 07:00:26;;;;;;;2.50;2.40;;;;;;;;;;4948053;28;96979;-49
2022/07/30 07:02:51;;;;;;;3.30;2.70;;;;;;;22.55;57.65;101437.03;4960174;28;96937;-50
2022/07/30 07:05:16;;;;;;;3.13;2.77;;;;;;;22.61;57.60;101439.66;4959359;28;98010;-50
2022/07/30 07:07:42;;;;;;;2.50;2.33;;;;;;;22.66;57.57;101436.72;4961049;28;97197;-50
2022/07/30 07:10:08;;;;;;;2.30;2.10;;;;;;;22.72;57.57;101440.06;4959190;28;97290;-50
2022/07/30 07:12:33;;;;;;;2.97;2.13;;;;;;;22.79;57.63;101441.41;4960539;28;96743;-51
2022/07/30 07:14:59;;;;;;;2.20;2.10;;;;;;;22.82;57.48;101435.44;4961027;28;96891;-50
2022/07/30 07:17:24;;;;;;;2.37;2.17;;;;;;;22.87;57.15;101439.34;4959785;28;97081;-51
2022/07/30 07:19:49;;;;;;;1.80;1.70;;;;;;;22.93;57.49;101432.22;4955639;28;97845;-50
2022/07/30 07:22:15;;;;;;;2.10;2.00;;;;;;;23.01;57.49;101437.88;4960202;28;97686;-51
2022/07/30 07:24:40;;;;;;;1.83;1.73;;;;;;;23.07;57.60;101430.00;4951796;28;96730;-50
2022/07/30 07:27:06;;;;;;;1.97;1.83;;;;;;;23.15;57.68;101438.44;4962599;28;97101;-50
2022/07/30 07:29:32;;;;;;;2.07;1.97;;;;;;;23.24;57.64;101435.06;4954171;28;96797;-50
2022/07/30 07:31:57;;;;;;;1.90;1.80;;;;;;;23.31;57.82;101426.63;4960597;28;100602;-50
2022/07/30 07:34:23;;;;;;;2.73;1.97;;;;;;;23.37;57.27;101421.56;4958210;28;97321;-49
2022/07/30 07:36:48;;;;;;;2.07;1.50;;;;;;;23.52;57.51;101435.63;4961585;28;97314;-49
2022/07/30 07:39:13;;;;;;;1.77;1.67;;;;;;;23.59;57.28;101436.94;4961784;28;100376;-50
2022/07/30 07:41:39;;;;;;;1.83;1.67;;;;;;;23.67;57.59;101438.41;4960249;28;96770;-50
2022/07/30 07:44:04;;;;;;;3.13;1.70;;;;;;;23.74;57.23;101434.81;4953397;28;97475;-51
2022/07/30 07:46:30;;;;;;;1.77;1.67;;;;;;;23.79;57.30;101439.47;4958664;28;96851;-50
2022/07/30 07:48:55;;;;;;;2.40;1.60;;;;;;;23.88;57.07;101443.75;4958555;28;98863;-50
2022/07/30 07:51:21;;;;;;;2.00;1.77;;;;;;;23.95;57.12;101442.25;4961934;28;97292;-49
2022/07/30 07:53:46;;;;;;;2.93;1.50;;;;;;;24.02;56.87;101452.72;4959674;28;97353;-50
2022/07/30 07:56:12;;;;;;;1.60;1.50;;;;;;;24.09;56.35;101443.53;4957515;28;96789;-50
2022/07/30 07:58:38;;;;;;;1.90;1.30;;;;;;;24.14;56.50;101436.94;4957118;28;97273;-50
2022/07/30 08:01:03;;;;;;;1.20;1.10;;;;;;;24.20;56.49;101440.31;4963574;28;97009;-49
2022/07/30 08:03:29;;;;;;;1.20;1.10;;;;;;;24.32;56.57;101444.19;4958335;28;96922;-50
2022/07/30 08:05:54;;;;;;;0.97;0.97;;;;;;;24.48;56.53;101443.53;4961334;28;97196;-50
2022/07/30 08:08:20;;;;;;;3.23;1.30;;;;;;;24.57;56.20;101439.38;4959643;28;98014;-50
2022/07/30 08:10:45;;;;;;;1.20;1.10;;;;;;;24.63;56.46;101437.06;4958621;28;97245;-50
2022/07/30 08:13:11;;;;;;;1.33;1.23;;;;;;;24.69;56.43;101446.03;4952783;28;96728;-50
2022/07/30 08:15:36;;;;;;;1.40;1.30;;;;;;;24.78;56.10;101437.00;4959714;28;97577;-51
2022/07/30 08:18:01;;;;;;;2.20;1.37;;;;;;;24.81;55.38;101452.75;4961763;28;96806;-50
2022/07/30 08:20:27;;;;;;;1.00;1.00;;;;;;;24.80;55.00;101445.63;4958006;28;96756;-49
2022/07/30 08:22:52;;;;;;;1.00;1.00;;;;;;;24.75;54.18;101445.84;4961447;28;97140;-49
2022/07/30 08:25:18;;;;;;;1.83;1.20;;;;;;;24.71;54.15;101442.63;4963288;28;96952;-51
2022/07/30 08:27:44;;;;;;;1.00;1.00;;;;;;;24.69;54.39;101451.66;4961046;28;97426;-50
2022/07/30 08:30:10;;;;;;;0.90;0.90;;;;;;;24.69;54.63;101440.41;4959232;28;97313;-51
2022/07/30 08:32:36;;;;;;;1.00;1.00;;;;;;;24.68;54.51;101450.19;4959092;28;96878;-50
2022/07/30 08:35:03;;;;;;;1.20;0.80;;;;;;;24.69;54.11;101448.09;4961889;28;97359;-50
2022/07/30 08:37:29;;;;;;;1.30;1.20;;;;;;;24.72;53.92;101446.97;4958822;28;99080;-49
2022/07/30 08:39:54;;;;;;;0.90;0.90;;;;;;;24.72;53.98;101444.91;4962563;28;97093;-50
2022/07/30 08:42:21;;;;;;;0.93;0.93;;;;;;;24.74;53.69;101447.88;4958230;28;97803;-50
2022/07/30 08:44:47;;;;;;;1.10;0.90;;;;;;;24.87;53.73;101453.25;4961543;28;99048;-48
2022/07/30 08:47:16;;;;;;;1.00;1.00;;;;;;;24.89;52.77;101441.41;4955134;28;97476;-50
2022/07/30 08:49:42;;;;;;;1.47;1.37;;;;;;;24.86;52.99;101437.69;4966047;28;97117;-49
2022/07/30 08:52:09;;;;;;;1.33;1.23;;;;;;;24.80;52.80;101439.97;4948130;28;97242;-49
2022/07/30 08:54:35;;;;;;;1.00;1.00;;;;;;;24.75;52.71;101438.13;4959370;28;97036;-49
2022/07/30 08:57:01;;;;;;;1.10;1.00;;;;;;;24.71;52.88;101437.75;4956913;28;97434;-50
2022/07/30 08:59:27;;;;;;;1.40;1.30;;;;;;;24.68;52.91;101435.34;4960390;28;98359;-50
2022/07/30 09:01:52;;;;;;;1.90;1.40;;;;;;;24.66;52.70;101435.91;4960114;28;97292;-51
2022/07/30 09:04:18;;;;;;;1.40;1.20;;;;;;;24.66;52.95;101441.53;4962660;28;96778;-50
2022/07/30 09:06:44;;;;;;;1.30;1.20;;;;;;;24.77;52.81;101451.66;4955600;28;97088;-50
2022/07/30 09:09:10;;;;;;;1.40;1.30;;;;;;;24.89;52.67;101452.69;4964433;28;97014;-50
2022/07/30 09:11:35;;;;;;;1.60;1.50;;;;;;;24.91;52.24;101456.41;4960026;28;96968;-50
2022/07/30 09:14:12;;;;;;;1.67;1.10;;;;;;;25.04;51.91;101455.38;4963707;28;97318;-50
2022/07/30 09:16:39;;;;;;;1.50;1.40;;;;;;;25.28;52.36;101452.56;4961065;28;96789;-50
2022/07/30 09:19:20;;;;;;;1.00;0.90;;;;;;;25.52;50.72;101461.56;4957996;28;96845;-50
2022/07/30 09:21:58;;;;;;;1.03;0.90;;;;;;;25.60;50.72;101453.78;4960147;28;96734;-49
2022/07/30 09:24:24;;;;;;;1.30;1.20;;;;;;;25.66;50.79;101459.94;4956862;28;96996;-50
2022/07/30 09:26:56;;;;;;;1.43;1.33;;;;;;;25.90;50.28;101454.22;4958965;28;96960;-50
2022/07/30 09:29:27;;;;;;;2.07;1.20;;;;;;;26.12;50.10;101454.56;4961329;28;100993;-50
2022/07/30 09:31:54;;;;;;;1.50;1.40;;;;;;;26.34;49.77;101457.06;4960566;28;96981;-51
2022/07/30 09:34:31;;;;;;;1.80;1.23;;;;;;;26.57;49.31;101451.13;4957100;28;97009;-50
2022/07/30 09:36:58;;;;;;;1.37;1.27;;;;;;;26.83;49.25;101460.91;4955586;28;101737;-50
2022/07/30 09:39:28;;;;;;;1.53;1.43;;;;;;;27.00;48.73;101464.41;4958712;28;97270;-50
2022/07/30 09:41:55;;;;;;;2.00;1.30;;;;;;;27.13;48.46;101468.94;4955687;28;97471;-50
2022/07/30 09:44:26;;;;;;;2.57;1.40;;;;;;;27.33;48.21;101467.63;4956724;28;98127;-50
2022/07/30 09:46:52;;;;;;;1.30;1.20;;;;;;;27.43;47.90;101465.63;4957165;28;97449;-51
2022/07/30 09:49:22;;;;;;;1.63;1.30;;;;;;;27.49;47.96;101471.72;4961868;28;97093;-50
2022/07/30 09:51:50;;;;;;;1.07;1.07;;;;;;;27.61;47.77;101478.28;4960690;28;96974;-51
2022/07/30 09:54:15;;;;;;;1.27;1.10;;;;;;;27.64;47.46;101479.94;4958450;28;96978;-51
2022/07/30 09:56:42;;;;;;;1.77;1.63;;;;;;;27.64;47.72;101465.78;4960123;28;97318;-49
2022/07/30 09:59:25;;;;;;;1.90;1.80;;;;;;;27.72;46.22;101477.69;4957166;28;96906;-52
2022/07/30 10:01:52;;;;;;;1.63;1.30;;;;;;;27.81;47.29;101479.78;4962237;28;98013;-50
2022/07/30 10:04:29;;;;;;;1.50;1.40;;;;;;;27.81;46.07;101474.13;4951821;28;97287;-49
2022/07/30 10:06:56;;;;;;;1.40;1.30;;;;;;;27.90;46.96;101481.88;4960965;28;102025;-50
2022/07/30 10:09:33;;;;;;;1.77;1.67;;;;;;;28.02;45.72;101482.06;4963511;28;96956;-50
2022/07/30 10:12:01;;;;;;;1.77;1.67;;;;;;;28.09;46.20;101487.56;4960214;28;97006;-49
2022/07/30 10:14:35;;;;;;;1.80;1.70;;;;;;;28.13;45.24;101482.19;4960697;28;97217;-50
2022/07/30 10:17:01;;;;;;;3.00;1.80;;;;;;;28.22;46.15;101477.88;4957803;28;101989;-51
2022/07/30 10:19:27;;;;;;;1.60;1.50;;;;;;;28.31;45.89;101490.53;4961562;28;97003;-50
2022/07/30 10:21:56;;;;;;;2.07;1.60;;;;;;;28.45;45.49;101485.88;4958743;28;96785;-50
2022/07/30 10:24:23;;;;;;;2.03;1.60;;;;;;;28.58;45.32;101476.94;4958596;28;96900;-50
2022/07/30 10:26:50;;;;;;;2.53;1.13;;;;;;;28.62;44.46;101477.22;4958596;28;97007;-50
2022/07/30 10:29:17;;;;;;;1.63;1.53;;;;;;;28.67;44.08;101476.94;4961253;28;96828;-50
2022/07/30 10:31:43;;;;;;;1.43;1.20;;;;;;;28.70;44.31;101474.97;4958177;28;97112;-50
2022/07/30 10:34:10;;;;;;;1.53;1.43;;;;;;;28.65;43.84;101481.69;4964763;28;97237;-50
2022/07/30 10:36:38;;;;;;;1.47;1.40;;;;;;;28.55;43.76;101473.19;4957653;28;97342;-50
2022/07/30 10:39:06;;;;;;;1.50;1.40;;;;;;;28.48;44.00;101470.53;4966306;28;96996;-49
2022/07/30 10:41:34;;;;;;;1.60;1.50;;;;;;;28.52;43.49;101471.56;4963325;28;96788;-50
2022/07/30 10:43:59;;;;;;;1.80;1.70;;;;;;;28.57;43.34;101472.59;4966924;28;96829;-50
2022/07/30 10:46:52;;;;;;;2.30;1.40;;;;;;;28.52;42.34;101476.50;4959055;28;97339;-49
2022/07/30 10:49:18;;;;;;;1.60;1.50;;;;;;;28.51;43.27;101475.75;4957518;28;101681;-49
2022/07/30 10:51:49;;;;;;;1.90;1.50;;;;;;;28.58;42.74;101474.13;4961505;28;97057;-50
2022/07/30 10:54:32;;;;;;;1.47;1.37;;;;;;;28.67;42.33;101479.75;4962386;28;97397;-49
2022/07/30 10:57:11;;;;;;;1.50;1.40;;;;;;;28.74;41.74;101469.59;4963587;28;98814;-50
2022/07/30 10:59:48;;;;;;;1.40;1.30;;;;;;;28.76;41.36;101479.00;4951922;28;97191;-50
2022/07/30 11:02:15;;;;;;;1.30;1.20;;;;;;;28.66;41.94;101471.84;4958457;28;97132;-49
2022/07/30 11:04:41;;;;;;;1.87;1.77;;;;;;;28.61;42.44;101472.91;4956725;28;96763;-50
2022/07/30 11:07:22;;;;;;;2.50;1.20;;;;;;;28.62;41.98;101463.06;4961234;28;98555;-50
2022/07/30 11:09:52;;;;;;;1.40;1.30;;;;;;;28.63;43.07;101467.41;4961989;28;102700;-50
2022/07/30 11:12:42;;;;;;;2.30;1.40;;;;;;;28.58;41.88;101471.28;4952728;28;97244;-50
2022/07/30 11:15:09;;;;;;;1.40;1.30;;;;;;;28.55;42.46;101473.19;4964872;28;97370;-52
2022/07/30 11:17:59;;;;;;;2.40;1.80;;;;;;;28.50;41.96;101482.75;4959737;28;97212;-49
2022/07/30 11:20:26;;;;;;;1.37;1.27;;;;;;;28.54;41.91;101468.88;4958907;28;98473;-50
2022/07/30 11:22:52;;;;;;;4.27;1.40;;;;;;;28.63;42.12;101482.31;4954911;28;96961;-50
2022/07/30 11:25:21;;;;;;;1.80;1.70;;;;;;;28.72;41.44;101472.28;4955715;28;97203;-50